sensor_id;sensor_type;location;lat;lon;timestamp;P1;durP1;ratioP1;P2;durP2;ratioP2
83139;SDS011;73027;54.208;19.128;2023-12-20T00:00:57;4.00;;;1.17;;
83139;SDS011;73027;54.208;19.128;2023-12-20T00:03:22;4.50;;;1.40;;
83139;SDS011;73027;54.208;19.128;2023-12-20T00:05:49;1.95;;;0.63;;
83139;SDS011;73027;54.208;19.128;2023-12-20T00:08:16;3.03;;;1.08;;
83139;SDS011;73027;54.208;19.128;2023-12-20T00:10:42;4.13;;;1.60;;
83139;SDS011;73027;54.208;19.128;2023-12-20T00:13:08;3.60;;;1.10;;
83139;SDS011;73027;54.208;19.128;2023-12-20T00:15:34;4.05;;;1.30;;
83139;SDS011;73027;54.208;19.128;2023-12-20T00:18:00;3.67;;;1.00;;
83139;SDS011;73027;54.208;19.128;2023-12-20T00:20:26;2.80;;;1.08;;
83139;SDS011;73027;54.208;19.128;2023-12-20T00:22:52;3.38;;;0.90;;
83139;SDS011;73027;54.208;19.128;2023-12-20T00:25:18;3.08;;;1.17;;
83139;SDS011;73027;54.208;19.128;2023-12-20T00:27:44;2.78;;;0.93;;
83139;SDS011;73027;54.208;19.128;2023-12-20T00:30:09;3.65;;;1.33;;
83139;SDS011;73027;54.208;19.128;2023-12-20T00:32:35;3.35;;;1.05;;
83139;SDS011;73027;54.208;19.128;2023-12-20T00:35:01;3.10;;;0.90;;
83139;SDS011;73027;54.208;19.128;2023-12-20T00:37:26;2.28;;;0.82;;
83139;SDS011;73027;54.208;19.128;2023-12-20T00:39:52;4.18;;;1.13;;
83139;SDS011;73027;54.208;19.128;2023-12-20T00:42:17;2.53;;;0.90;;
83139;SDS011;73027;54.208;19.128;2023-12-20T00:44:43;3.47;;;1.10;;
83139;SDS011;73027;54.208;19.128;2023-12-20T00:47:08;2.38;;;0.90;;
83139;SDS011;73027;54.208;19.128;2023-12-20T00:49:33;2.25;;;0.70;;
83139;SDS011;73027;54.208;19.128;2023-12-20T00:51:59;2.38;;;0.68;;
83139;SDS011;73027;54.208;19.128;2023-12-20T00:54:27;5.70;;;1.15;;
83139;SDS011;73027;54.208;19.128;2023-12-20T00:56:52;2.10;;;0.60;;
83139;SDS011;73027;54.208;19.128;2023-12-20T00:59:17;2.40;;;0.80;;
83139;SDS011;73027;54.208;19.128;2023-12-20T01:01:43;3.50;;;1.10;;
83139;SDS011;73027;54.208;19.128;2023-12-20T01:04:09;2.15;;;0.60;;
83139;SDS011;73027;54.208;19.128;2023-12-20T01:06:35;2.25;;;0.70;;
83139;SDS011;73027;54.208;19.128;2023-12-20T01:09:00;4.07;;;1.38;;
83139;SDS011;73027;54.208;19.128;2023-12-20T01:11:26;2.17;;;0.88;;
83139;SDS011;73027;54.208;19.128;2023-12-20T01:13:51;2.60;;;1.02;;
83139;SDS011;73027;54.208;19.128;2023-12-20T01:16:16;2.97;;;0.90;;
83139;SDS011;73027;54.208;19.128;2023-12-20T01:18:42;2.60;;;0.93;;
83139;SDS011;73027;54.208;19.128;2023-12-20T01:21:07;3.03;;;0.77;;
83139;SDS011;73027;54.208;19.128;2023-12-20T01:23:33;4.40;;;1.48;;
83139;SDS011;73027;54.208;19.128;2023-12-20T01:25:58;3.33;;;0.73;;
83139;SDS011;73027;54.208;19.128;2023-12-20T01:28:26;3.22;;;1.15;;
83139;SDS011;73027;54.208;19.128;2023-12-20T01:30:51;2.55;;;0.90;;
83139;SDS011;73027;54.208;19.128;2023-12-20T01:33:17;2.33;;;0.65;;
83139;SDS011;73027;54.208;19.128;2023-12-20T01:35:43;4.93;;;1.30;;
83139;SDS011;73027;54.208;19.128;2023-12-20T01:38:08;1.45;;;0.38;;
83139;SDS011;73027;54.208;19.128;2023-12-20T01:40:34;2.50;;;0.60;;
83139;SDS011;73027;54.208;19.128;2023-12-20T01:43:00;2.08;;;0.70;;
83139;SDS011;73027;54.208;19.128;2023-12-20T01:45:26;5.03;;;1.90;;
83139;SDS011;73027;54.208;19.128;2023-12-20T01:47:54;11.25;;;4.28;;
83139;SDS011;73027;54.208;19.128;2023-12-20T01:50:21;4.93;;;1.60;;
83139;SDS011;73027;54.208;19.128;2023-12-20T01:52:46;9.43;;;2.80;;
83139;SDS011;73027;54.208;19.128;2023-12-20T01:55:13;11.45;;;3.60;;
83139;SDS011;73027;54.208;19.128;2023-12-20T01:57:40;5.80;;;1.92;;
83139;SDS011;73027;54.208;19.128;2023-12-20T02:00:08;4.10;;;1.40;;
83139;SDS011;73027;54.208;19.128;2023-12-20T02:02:36;3.75;;;1.10;;
83139;SDS011;73027;54.208;19.128;2023-12-20T02:05:05;6.85;;;2.67;;
83139;SDS011;73027;54.208;19.128;2023-12-20T02:07:31;12.32;;;3.88;;
83139;SDS011;73027;54.208;19.128;2023-12-20T02:09:56;11.48;;;4.30;;
83139;SDS011;73027;54.208;19.128;2023-12-20T02:12:22;6.95;;;1.67;;
83139;SDS011;73027;54.208;19.128;2023-12-20T02:14:48;6.68;;;1.90;;
83139;SDS011;73027;54.208;19.128;2023-12-20T02:17:13;5.00;;;1.45;;
83139;SDS011;73027;54.208;19.128;2023-12-20T02:19:39;7.13;;;2.47;;
83139;SDS011;73027;54.208;19.128;2023-12-20T02:22:08;5.63;;;2.42;;
83139;SDS011;73027;54.208;19.128;2023-12-20T02:24:37;7.05;;;3.00;;
83139;SDS011;73027;54.208;19.128;2023-12-20T02:27:03;4.30;;;1.40;;
83139;SDS011;73027;54.208;19.128;2023-12-20T02:29:32;10.80;;;3.88;;
83139;SDS011;73027;54.208;19.128;2023-12-20T02:31:58;12.68;;;3.88;;
83139;SDS011;73027;54.208;19.128;2023-12-20T02:34:24;12.07;;;4.05;;
83139;SDS011;73027;54.208;19.128;2023-12-20T02:36:49;7.38;;;2.47;;
83139;SDS011;73027;54.208;19.128;2023-12-20T02:39:14;11.52;;;4.22;;
83139;SDS011;73027;54.208;19.128;2023-12-20T02:41:40;14.23;;;5.47;;
83139;SDS011;73027;54.208;19.128;2023-12-20T02:44:06;16.98;;;6.70;;
83139;SDS011;73027;54.208;19.128;2023-12-20T02:46:31;9.68;;;2.65;;
83139;SDS011;73027;54.208;19.128;2023-12-20T02:48:56;6.13;;;1.48;;
83139;SDS011;73027;54.208;19.128;2023-12-20T02:51:22;3.65;;;0.98;;
83139;SDS011;73027;54.208;19.128;2023-12-20T02:53:47;3.05;;;0.70;;
83139;SDS011;73027;54.208;19.128;2023-12-20T02:56:13;8.40;;;2.97;;
83139;SDS011;73027;54.208;19.128;2023-12-20T02:58:39;9.60;;;3.90;;
83139;SDS011;73027;54.208;19.128;2023-12-20T03:01:05;10.30;;;3.55;;
83139;SDS011;73027;54.208;19.128;2023-12-20T03:03:31;12.82;;;4.32;;
83139;SDS011;73027;54.208;19.128;2023-12-20T03:05:57;8.88;;;2.85;;
83139;SDS011;73027;54.208;19.128;2023-12-20T03:08:22;8.77;;;3.03;;
83139;SDS011;73027;54.208;19.128;2023-12-20T03:10:48;16.20;;;6.65;;
83139;SDS011;73027;54.208;19.128;2023-12-20T03:13:14;10.38;;;2.90;;
83139;SDS011;73027;54.208;19.128;2023-12-20T03:15:39;7.78;;;2.10;;
83139;SDS011;73027;54.208;19.128;2023-12-20T03:18:05;12.00;;;3.83;;
83139;SDS011;73027;54.208;19.128;2023-12-20T03:20:31;8.43;;;2.20;;
83139;SDS011;73027;54.208;19.128;2023-12-20T03:23:00;14.98;;;6.45;;
83139;SDS011;73027;54.208;19.128;2023-12-20T03:25:26;10.73;;;3.88;;
83139;SDS011;73027;54.208;19.128;2023-12-20T03:27:52;5.78;;;1.45;;
83139;SDS011;73027;54.208;19.128;2023-12-20T03:30:17;4.80;;;1.13;;
83139;SDS011;73027;54.208;19.128;2023-12-20T03:32:43;6.40;;;0.90;;
83139;SDS011;73027;54.208;19.128;2023-12-20T03:35:09;12.02;;;3.90;;
83139;SDS011;73027;54.208;19.128;2023-12-20T03:37:34;7.88;;;1.02;;
83139;SDS011;73027;54.208;19.128;2023-12-20T03:40:00;4.20;;;0.50;;
83139;SDS011;73027;54.208;19.128;2023-12-20T03:42:26;8.93;;;2.33;;
83139;SDS011;73027;54.208;19.128;2023-12-20T03:44:51;8.65;;;1.75;;
83139;SDS011;73027;54.208;19.128;2023-12-20T03:47:17;9.20;;;1.60;;
83139;SDS011;73027;54.208;19.128;2023-12-20T03:49:42;7.80;;;1.73;;
83139;SDS011;73027;54.208;19.128;2023-12-20T03:52:09;9.20;;;2.35;;
83139;SDS011;73027;54.208;19.128;2023-12-20T03:54:35;32.65;;;8.93;;
83139;SDS011;73027;54.208;19.128;2023-12-20T03:57:00;24.33;;;7.85;;
83139;SDS011;73027;54.208;19.128;2023-12-20T03:59:26;33.53;;;9.88;;
83139;SDS011;73027;54.208;19.128;2023-12-20T04:01:52;12.13;;;2.05;;
83139;SDS011;73027;54.208;19.128;2023-12-20T04:04:17;12.50;;;3.15;;
83139;SDS011;73027;54.208;19.128;2023-12-20T04:06:43;35.08;;;10.48;;
83139;SDS011;73027;54.208;19.128;2023-12-20T04:09:08;15.10;;;3.50;;
83139;SDS011;73027;54.208;19.128;2023-12-20T04:11:34;11.52;;;2.05;;
83139;SDS011;73027;54.208;19.128;2023-12-20T04:14:00;10.02;;;2.28;;
83139;SDS011;73027;54.208;19.128;2023-12-20T04:16:25;30.25;;;8.85;;
83139;SDS011;73027;54.208;19.128;2023-12-20T04:18:51;46.40;;;13.77;;
83139;SDS011;73027;54.208;19.128;2023-12-20T04:21:17;23.85;;;6.65;;
83139;SDS011;73027;54.208;19.128;2023-12-20T04:23:43;47.70;;;14.90;;
83139;SDS011;73027;54.208;19.128;2023-12-20T04:26:08;41.42;;;13.43;;
83139;SDS011;73027;54.208;19.128;2023-12-20T04:28:34;40.65;;;12.02;;
83139;SDS011;73027;54.208;19.128;2023-12-20T04:30:59;16.60;;;4.75;;
83139;SDS011;73027;54.208;19.128;2023-12-20T04:33:25;9.13;;;1.83;;
83139;SDS011;73027;54.208;19.128;2023-12-20T04:35:50;7.45;;;0.73;;
83139;SDS011;73027;54.208;19.128;2023-12-20T04:38:16;7.72;;;0.77;;
83139;SDS011;73027;54.208;19.128;2023-12-20T04:40:41;5.75;;;0.88;;
83139;SDS011;73027;54.208;19.128;2023-12-20T04:43:07;5.70;;;0.70;;
83139;SDS011;73027;54.208;19.128;2023-12-20T04:45:33;4.82;;;0.70;;
83139;SDS011;73027;54.208;19.128;2023-12-20T04:47:59;5.00;;;0.90;;
83139;SDS011;73027;54.208;19.128;2023-12-20T04:50:25;6.72;;;0.73;;
83139;SDS011;73027;54.208;19.128;2023-12-20T04:52:50;4.07;;;0.40;;
83139;SDS011;73027;54.208;19.128;2023-12-20T04:55:16;5.47;;;0.73;;
83139;SDS011;73027;54.208;19.128;2023-12-20T04:57:42;7.22;;;0.77;;
83139;SDS011;73027;54.208;19.128;2023-12-20T05:00:08;7.55;;;0.90;;
83139;SDS011;73027;54.208;19.128;2023-12-20T05:02:34;5.95;;;0.80;;
83139;SDS011;73027;54.208;19.128;2023-12-20T05:05:00;6.45;;;0.80;;
83139;SDS011;73027;54.208;19.128;2023-12-20T05:07:26;5.38;;;0.43;;
83139;SDS011;73027;54.208;19.128;2023-12-20T05:09:51;4.93;;;0.70;;
83139;SDS011;73027;54.208;19.128;2023-12-20T05:12:17;6.50;;;0.98;;
83139;SDS011;73027;54.208;19.128;2023-12-20T05:14:42;7.45;;;0.93;;
83139;SDS011;73027;54.208;19.128;2023-12-20T05:17:10;6.28;;;0.77;;
83139;SDS011;73027;54.208;19.128;2023-12-20T05:19:35;8.02;;;0.90;;
83139;SDS011;73027;54.208;19.128;2023-12-20T05:22:01;7.20;;;1.25;;
83139;SDS011;73027;54.208;19.128;2023-12-20T05:24:27;8.23;;;1.17;;
83139;SDS011;73027;54.208;19.128;2023-12-20T05:26:53;9.23;;;0.90;;
83139;SDS011;73027;54.208;19.128;2023-12-20T05:29:18;7.30;;;1.20;;
83139;SDS011;73027;54.208;19.128;2023-12-20T05:31:44;7.55;;;1.05;;
83139;SDS011;73027;54.208;19.128;2023-12-20T05:34:09;4.15;;;0.80;;
83139;SDS011;73027;54.208;19.128;2023-12-20T05:36:35;7.28;;;0.60;;
83139;SDS011;73027;54.208;19.128;2023-12-20T05:39:01;4.63;;;0.60;;
83139;SDS011;73027;54.208;19.128;2023-12-20T05:41:28;4.72;;;0.57;;
83139;SDS011;73027;54.208;19.128;2023-12-20T05:43:54;5.82;;;0.93;;
83139;SDS011;73027;54.208;19.128;2023-12-20T05:46:19;6.95;;;0.80;;
83139;SDS011;73027;54.208;19.128;2023-12-20T05:48:46;6.22;;;1.83;;
83139;SDS011;73027;54.208;19.128;2023-12-20T05:51:11;4.90;;;0.60;;
83139;SDS011;73027;54.208;19.128;2023-12-20T05:53:38;6.68;;;1.40;;
83139;SDS011;73027;54.208;19.128;2023-12-20T05:56:03;6.75;;;0.75;;
83139;SDS011;73027;54.208;19.128;2023-12-20T05:58:29;8.00;;;0.98;;
83139;SDS011;73027;54.208;19.128;2023-12-20T06:00:54;7.93;;;1.00;;
83139;SDS011;73027;54.208;19.128;2023-12-20T06:03:20;5.35;;;0.88;;
83139;SDS011;73027;54.208;19.128;2023-12-20T06:05:45;7.55;;;0.73;;
83139;SDS011;73027;54.208;19.128;2023-12-20T06:08:11;4.88;;;0.60;;
83139;SDS011;73027;54.208;19.128;2023-12-20T06:10:36;5.97;;;0.80;;
83139;SDS011;73027;54.208;19.128;2023-12-20T06:13:02;6.78;;;0.93;;
83139;SDS011;73027;54.208;19.128;2023-12-20T06:15:29;8.18;;;0.95;;
83139;SDS011;73027;54.208;19.128;2023-12-20T06:17:54;7.68;;;2.03;;
83139;SDS011;73027;54.208;19.128;2023-12-20T06:20:20;5.60;;;1.10;;
83139;SDS011;73027;54.208;19.128;2023-12-20T06:22:45;8.25;;;1.38;;
83139;SDS011;73027;54.208;19.128;2023-12-20T06:25:11;5.90;;;1.10;;
83139;SDS011;73027;54.208;19.128;2023-12-20T06:27:36;2.38;;;0.47;;
83139;SDS011;73027;54.208;19.128;2023-12-20T06:30:02;8.52;;;0.82;;
83139;SDS011;73027;54.208;19.128;2023-12-20T06:32:27;6.20;;;1.25;;
83139;SDS011;73027;54.208;19.128;2023-12-20T06:34:54;3.88;;;0.82;;
83139;SDS011;73027;54.208;19.128;2023-12-20T06:37:19;11.02;;;4.25;;
83139;SDS011;73027;54.208;19.128;2023-12-20T06:39:45;5.60;;;1.70;;
83139;SDS011;73027;54.208;19.128;2023-12-20T06:42:11;13.88;;;4.82;;
83139;SDS011;73027;54.208;19.128;2023-12-20T06:44:37;32.15;;;10.30;;
83139;SDS011;73027;54.208;19.128;2023-12-20T06:47:03;57.50;;;27.67;;
83139;SDS011;73027;54.208;19.128;2023-12-20T06:49:29;18.08;;;5.70;;
83139;SDS011;73027;54.208;19.128;2023-12-20T06:51:55;25.25;;;6.28;;
83139;SDS011;73027;54.208;19.128;2023-12-20T06:54:20;11.25;;;1.90;;
83139;SDS011;73027;54.208;19.128;2023-12-20T06:56:46;8.02;;;1.50;;
83139;SDS011;73027;54.208;19.128;2023-12-20T06:59:11;8.65;;;2.33;;
83139;SDS011;73027;54.208;19.128;2023-12-20T07:01:36;22.65;;;6.00;;
83139;SDS011;73027;54.208;19.128;2023-12-20T07:04:03;26.23;;;5.93;;
83139;SDS011;73027;54.208;19.128;2023-12-20T07:06:29;27.75;;;6.88;;
83139;SDS011;73027;54.208;19.128;2023-12-20T07:08:55;22.55;;;6.55;;
83139;SDS011;73027;54.208;19.128;2023-12-20T07:11:20;25.98;;;6.53;;
83139;SDS011;73027;54.208;19.128;2023-12-20T07:13:46;43.67;;;15.30;;
83139;SDS011;73027;54.208;19.128;2023-12-20T07:16:11;89.50;;;27.10;;
83139;SDS011;73027;54.208;19.128;2023-12-20T07:18:37;143.65;;;46.63;;
83139;SDS011;73027;54.208;19.128;2023-12-20T07:21:03;87.35;;;23.35;;
83139;SDS011;73027;54.208;19.128;2023-12-20T07:23:29;61.95;;;16.17;;
83139;SDS011;73027;54.208;19.128;2023-12-20T07:25:54;41.03;;;13.40;;
83139;SDS011;73027;54.208;19.128;2023-12-20T07:28:20;46.38;;;14.27;;
83139;SDS011;73027;54.208;19.128;2023-12-20T07:30:45;34.83;;;11.55;;
83139;SDS011;73027;54.208;19.128;2023-12-20T07:33:19;14.70;;;4.88;;
83139;SDS011;73027;54.208;19.128;2023-12-20T07:35:44;15.90;;;3.90;;
83139;SDS011;73027;54.208;19.128;2023-12-20T07:38:10;16.73;;;4.88;;
83139;SDS011;73027;54.208;19.128;2023-12-20T07:40:37;16.55;;;4.13;;
83139;SDS011;73027;54.208;19.128;2023-12-20T07:43:03;20.50;;;5.75;;
83139;SDS011;73027;54.208;19.128;2023-12-20T07:45:28;39.15;;;8.30;;
83139;SDS011;73027;54.208;19.128;2023-12-20T07:47:55;51.25;;;21.80;;
83139;SDS011;73027;54.208;19.128;2023-12-20T07:50:20;40.75;;;18.65;;
83139;SDS011;73027;54.208;19.128;2023-12-20T07:52:45;77.38;;;28.88;;
83139;SDS011;73027;54.208;19.128;2023-12-20T07:55:11;125.15;;;40.78;;
83139;SDS011;73027;54.208;19.128;2023-12-20T07:57:36;87.68;;;28.55;;
83139;SDS011;73027;54.208;19.128;2023-12-20T08:00:02;43.25;;;13.05;;
83139;SDS011;73027;54.208;19.128;2023-12-20T08:02:29;85.32;;;25.35;;
83139;SDS011;73027;54.208;19.128;2023-12-20T08:04:54;16.85;;;5.13;;
83139;SDS011;73027;54.208;19.128;2023-12-20T08:07:19;13.43;;;4.00;;
83139;SDS011;73027;54.208;19.128;2023-12-20T08:09:45;25.98;;;7.82;;
83139;SDS011;73027;54.208;19.128;2023-12-20T08:12:10;57.30;;;15.52;;
83139;SDS011;73027;54.208;19.128;2023-12-20T08:14:36;16.45;;;4.53;;
83139;SDS011;73027;54.208;19.128;2023-12-20T08:17:02;40.78;;;11.98;;
83139;SDS011;73027;54.208;19.128;2023-12-20T08:19:27;51.22;;;11.45;;
83139;SDS011;73027;54.208;19.128;2023-12-20T08:21:53;21.60;;;5.65;;
83139;SDS011;73027;54.208;19.128;2023-12-20T08:24:18;58.92;;;19.40;;
83139;SDS011;73027;54.208;19.128;2023-12-20T08:26:44;14.00;;;3.42;;
83139;SDS011;73027;54.208;19.128;2023-12-20T08:29:12;4.95;;;1.25;;
83139;SDS011;73027;54.208;19.128;2023-12-20T08:31:38;4.65;;;1.05;;
83139;SDS011;73027;54.208;19.128;2023-12-20T08:34:04;9.23;;;2.92;;
83139;SDS011;73027;54.208;19.128;2023-12-20T08:36:29;6.10;;;1.58;;
83139;SDS011;73027;54.208;19.128;2023-12-20T08:38:54;26.60;;;6.60;;
83139;SDS011;73027;54.208;19.128;2023-12-20T08:41:20;12.48;;;2.70;;
83139;SDS011;73027;54.208;19.128;2023-12-20T08:43:46;24.90;;;10.90;;
83139;SDS011;73027;54.208;19.128;2023-12-20T08:46:11;21.73;;;8.52;;
83139;SDS011;73027;54.208;19.128;2023-12-20T08:48:37;11.23;;;3.72;;
83139;SDS011;73027;54.208;19.128;2023-12-20T08:51:03;9.80;;;1.83;;
83139;SDS011;73027;54.208;19.128;2023-12-20T08:53:29;13.65;;;3.08;;
83139;SDS011;73027;54.208;19.128;2023-12-20T08:55:54;11.35;;;3.17;;
83139;SDS011;73027;54.208;19.128;2023-12-20T08:58:26;7.85;;;2.38;;
83139;SDS011;73027;54.208;19.128;2023-12-20T09:00:51;6.85;;;1.73;;
83139;SDS011;73027;54.208;19.128;2023-12-20T09:03:16;15.70;;;4.55;;
83139;SDS011;73027;54.208;19.128;2023-12-20T09:05:42;46.13;;;15.55;;
83139;SDS011;73027;54.208;19.128;2023-12-20T09:08:07;96.13;;;28.92;;
83139;SDS011;73027;54.208;19.128;2023-12-20T09:10:35;21.30;;;5.55;;
83139;SDS011;73027;54.208;19.128;2023-12-20T09:13:00;16.42;;;3.72;;
83139;SDS011;73027;54.208;19.128;2023-12-20T09:15:26;10.30;;;2.03;;
83139;SDS011;73027;54.208;19.128;2023-12-20T09:17:52;9.45;;;2.13;;
83139;SDS011;73027;54.208;19.128;2023-12-20T09:20:18;6.70;;;1.52;;
83139;SDS011;73027;54.208;19.128;2023-12-20T09:22:44;8.65;;;1.80;;
83139;SDS011;73027;54.208;19.128;2023-12-20T09:25:10;9.48;;;2.50;;
83139;SDS011;73027;54.208;19.128;2023-12-20T09:27:36;11.77;;;1.83;;
83139;SDS011;73027;54.208;19.128;2023-12-20T09:30:02;5.40;;;1.30;;
83139;SDS011;73027;54.208;19.128;2023-12-20T09:32:29;6.43;;;1.45;;
83139;SDS011;73027;54.208;19.128;2023-12-20T09:34:54;20.67;;;9.55;;
83139;SDS011;73027;54.208;19.128;2023-12-20T09:37:20;16.92;;;5.15;;
83139;SDS011;73027;54.208;19.128;2023-12-20T09:39:45;25.35;;;9.68;;
83139;SDS011;73027;54.208;19.128;2023-12-20T09:42:11;13.88;;;5.15;;
83139;SDS011;73027;54.208;19.128;2023-12-20T09:44:42;22.55;;;6.10;;
83139;SDS011;73027;54.208;19.128;2023-12-20T09:47:09;46.90;;;15.20;;
83139;SDS011;73027;54.208;19.128;2023-12-20T09:49:35;13.18;;;5.05;;
83139;SDS011;73027;54.208;19.128;2023-12-20T09:52:02;11.02;;;4.05;;
83139;SDS011;73027;54.208;19.128;2023-12-20T09:54:31;9.95;;;2.63;;
83139;SDS011;73027;54.208;19.128;2023-12-20T09:56:56;8.35;;;2.33;;
83139;SDS011;73027;54.208;19.128;2023-12-20T09:59:23;10.70;;;2.42;;
83139;SDS011;73027;54.208;19.128;2023-12-20T10:01:48;12.20;;;4.55;;
83139;SDS011;73027;54.208;19.128;2023-12-20T10:06:42;12.02;;;4.22;;
83139;SDS011;73027;54.208;19.128;2023-12-20T10:09:08;28.60;;;7.93;;
83139;SDS011;73027;54.208;19.128;2023-12-20T10:11:37;27.73;;;7.88;;
83139;SDS011;73027;54.208;19.128;2023-12-20T10:14:04;21.92;;;5.50;;
83139;SDS011;73027;54.208;19.128;2023-12-20T10:16:30;15.65;;;4.63;;
83139;SDS011;73027;54.208;19.128;2023-12-20T10:18:56;40.38;;;11.30;;
83139;SDS011;73027;54.208;19.128;2023-12-20T10:21:22;14.88;;;4.93;;
83139;SDS011;73027;54.208;19.128;2023-12-20T10:23:48;15.25;;;4.88;;
83139;SDS011;73027;54.208;19.128;2023-12-20T10:26:20;19.30;;;7.63;;
83139;SDS011;73027;54.208;19.128;2023-12-20T10:28:50;18.52;;;7.88;;
83139;SDS011;73027;54.208;19.128;2023-12-20T10:31:31;15.73;;;5.35;;
83139;SDS011;73027;54.208;19.128;2023-12-20T10:34:00;11.10;;;4.95;;
83139;SDS011;73027;54.208;19.128;2023-12-20T10:36:27;11.65;;;4.25;;
83139;SDS011;73027;54.208;19.128;2023-12-20T10:38:57;20.17;;;6.60;;
83139;SDS011;73027;54.208;19.128;2023-12-20T10:41:30;8.95;;;2.88;;
83139;SDS011;73027;54.208;19.128;2023-12-20T10:44:00;9.88;;;2.83;;
83139;SDS011;73027;54.208;19.128;2023-12-20T10:46:27;11.40;;;4.32;;
83139;SDS011;73027;54.208;19.128;2023-12-20T10:48:58;12.07;;;4.97;;
83139;SDS011;73027;54.208;19.128;2023-12-20T10:51:27;19.83;;;7.88;;
83139;SDS011;73027;54.208;19.128;2023-12-20T10:53:54;38.83;;;19.08;;
83139;SDS011;73027;54.208;19.128;2023-12-20T10:56:20;184.90;;;50.47;;
83139;SDS011;73027;54.208;19.128;2023-12-20T10:58:48;26.95;;;9.55;;
83139;SDS011;73027;54.208;19.128;2023-12-20T11:01:15;17.48;;;7.03;;
83139;SDS011;73027;54.208;19.128;2023-12-20T11:03:44;15.50;;;4.43;;
83139;SDS011;73027;54.208;19.128;2023-12-20T11:08:58;26.27;;;6.82;;
83139;SDS011;73027;54.208;19.128;2023-12-20T11:14:52;12.73;;;3.03;;
83139;SDS011;73027;54.208;19.128;2023-12-20T11:17:20;13.25;;;3.78;;
83139;SDS011;73027;54.208;19.128;2023-12-20T11:22:18;13.57;;;3.33;;
83139;SDS011;73027;54.208;19.128;2023-12-20T11:24:46;23.52;;;5.78;;
83139;SDS011;73027;54.208;19.128;2023-12-20T11:27:13;7.28;;;1.75;;
83139;SDS011;73027;54.208;19.128;2023-12-20T11:29:38;11.68;;;3.15;;
83139;SDS011;73027;54.208;19.128;2023-12-20T11:34:50;9.20;;;2.08;;
83139;SDS011;73027;54.208;19.128;2023-12-20T11:37:16;14.65;;;3.83;;
83139;SDS011;73027;54.208;19.128;2023-12-20T11:39:42;15.98;;;4.53;;
83139;SDS011;73027;54.208;19.128;2023-12-20T11:42:09;11.93;;;3.80;;
83139;SDS011;73027;54.208;19.128;2023-12-20T11:44:36;7.95;;;2.60;;
83139;SDS011;73027;54.208;19.128;2023-12-20T11:47:02;11.00;;;3.03;;
83139;SDS011;73027;54.208;19.128;2023-12-20T11:49:27;7.45;;;1.98;;
83139;SDS011;73027;54.208;19.128;2023-12-20T11:51:55;5.38;;;1.80;;
83139;SDS011;73027;54.208;19.128;2023-12-20T11:54:21;9.05;;;2.10;;
83139;SDS011;73027;54.208;19.128;2023-12-20T11:56:47;7.25;;;2.83;;
83139;SDS011;73027;54.208;19.128;2023-12-20T11:59:13;7.53;;;2.10;;
83139;SDS011;73027;54.208;19.128;2023-12-20T12:01:38;9.25;;;2.88;;
83139;SDS011;73027;54.208;19.128;2023-12-20T12:04:04;9.23;;;2.63;;
83139;SDS011;73027;54.208;19.128;2023-12-20T12:06:30;10.38;;;3.65;;
83139;SDS011;73027;54.208;19.128;2023-12-20T12:08:56;7.68;;;2.75;;
83139;SDS011;73027;54.208;19.128;2023-12-20T12:11:22;14.13;;;3.22;;
83139;SDS011;73027;54.208;19.128;2023-12-20T12:13:48;9.82;;;3.45;;
83139;SDS011;73027;54.208;19.128;2023-12-20T12:16:17;6.47;;;2.58;;
83139;SDS011;73027;54.208;19.128;2023-12-20T12:18:44;8.45;;;3.15;;
83139;SDS011;73027;54.208;19.128;2023-12-20T12:21:09;8.13;;;2.53;;
83139;SDS011;73027;54.208;19.128;2023-12-20T12:23:36;9.18;;;2.63;;
83139;SDS011;73027;54.208;19.128;2023-12-20T12:26:03;8.73;;;3.13;;
83139;SDS011;73027;54.208;19.128;2023-12-20T12:28:29;10.35;;;2.42;;
83139;SDS011;73027;54.208;19.128;2023-12-20T12:30:57;9.60;;;2.70;;
83139;SDS011;73027;54.208;19.128;2023-12-20T12:33:24;7.18;;;2.13;;
83139;SDS011;73027;54.208;19.128;2023-12-20T12:35:50;10.88;;;3.53;;
83139;SDS011;73027;54.208;19.128;2023-12-20T12:38:16;22.60;;;5.95;;
83139;SDS011;73027;54.208;19.128;2023-12-20T12:40:44;16.58;;;5.18;;
83139;SDS011;73027;54.208;19.128;2023-12-20T12:43:10;28.08;;;8.73;;
83139;SDS011;73027;54.208;19.128;2023-12-20T12:45:35;22.80;;;5.72;;
83139;SDS011;73027;54.208;19.128;2023-12-20T12:48:01;21.10;;;6.85;;
83139;SDS011;73027;54.208;19.128;2023-12-20T12:50:27;15.55;;;4.03;;
83139;SDS011;73027;54.208;19.128;2023-12-20T12:52:53;10.43;;;3.65;;
83139;SDS011;73027;54.208;19.128;2023-12-20T12:55:19;19.98;;;6.80;;
83139;SDS011;73027;54.208;19.128;2023-12-20T12:57:44;11.90;;;5.00;;
83139;SDS011;73027;54.208;19.128;2023-12-20T13:00:11;17.00;;;4.53;;
83139;SDS011;73027;54.208;19.128;2023-12-20T13:02:37;17.17;;;5.22;;
83139;SDS011;73027;54.208;19.128;2023-12-20T13:05:03;9.98;;;3.38;;
83139;SDS011;73027;54.208;19.128;2023-12-20T13:07:29;20.30;;;7.00;;
83139;SDS011;73027;54.208;19.128;2023-12-20T13:09:55;15.85;;;6.18;;
83139;SDS011;73027;54.208;19.128;2023-12-20T13:12:20;29.58;;;9.48;;
83139;SDS011;73027;54.208;19.128;2023-12-20T13:14:46;13.30;;;4.63;;
83139;SDS011;73027;54.208;19.128;2023-12-20T13:17:12;25.13;;;8.07;;
83139;SDS011;73027;54.208;19.128;2023-12-20T13:19:37;13.02;;;3.92;;
83139;SDS011;73027;54.208;19.128;2023-12-20T13:22:03;19.30;;;5.85;;
83139;SDS011;73027;54.208;19.128;2023-12-20T13:24:29;23.33;;;8.88;;
83139;SDS011;73027;54.208;19.128;2023-12-20T13:26:54;21.92;;;8.35;;
83139;SDS011;73027;54.208;19.128;2023-12-20T13:29:20;13.02;;;4.97;;
83139;SDS011;73027;54.208;19.128;2023-12-20T13:31:46;17.88;;;6.78;;
83139;SDS011;73027;54.208;19.128;2023-12-20T13:34:11;20.77;;;6.07;;
83139;SDS011;73027;54.208;19.128;2023-12-20T13:36:37;12.82;;;4.07;;
83139;SDS011;73027;54.208;19.128;2023-12-20T13:39:03;15.40;;;5.50;;
83139;SDS011;73027;54.208;19.128;2023-12-20T13:41:30;10.70;;;4.28;;
83139;SDS011;73027;54.208;19.128;2023-12-20T13:43:56;13.60;;;4.30;;
83139;SDS011;73027;54.208;19.128;2023-12-20T13:46:21;24.58;;;7.07;;
83139;SDS011;73027;54.208;19.128;2023-12-20T13:48:48;7.22;;;2.40;;
83139;SDS011;73027;54.208;19.128;2023-12-20T13:51:15;7.10;;;2.58;;
83139;SDS011;73027;54.208;19.128;2023-12-20T13:53:41;5.70;;;1.67;;
83139;SDS011;73027;54.208;19.128;2023-12-20T13:56:06;9.98;;;2.45;;
83139;SDS011;73027;54.208;19.128;2023-12-20T13:58:32;4.22;;;1.35;;
83139;SDS011;73027;54.208;19.128;2023-12-20T14:00:57;5.47;;;2.00;;
83139;SDS011;73027;54.208;19.128;2023-12-20T14:03:25;5.70;;;1.98;;
83139;SDS011;73027;54.208;19.128;2023-12-20T14:05:50;5.38;;;1.58;;
83139;SDS011;73027;54.208;19.128;2023-12-20T14:08:16;7.00;;;2.17;;
83139;SDS011;73027;54.208;19.128;2023-12-20T14:10:41;5.05;;;1.52;;
83139;SDS011;73027;54.208;19.128;2023-12-20T14:13:07;6.75;;;1.50;;
83139;SDS011;73027;54.208;19.128;2023-12-20T14:15:32;7.25;;;2.35;;
83139;SDS011;73027;54.208;19.128;2023-12-20T14:18:03;9.05;;;2.47;;
83139;SDS011;73027;54.208;19.128;2023-12-20T14:20:31;11.63;;;3.28;;
83139;SDS011;73027;54.208;19.128;2023-12-20T14:22:59;22.00;;;9.32;;
83139;SDS011;73027;54.208;19.128;2023-12-20T14:25:25;28.20;;;6.90;;
83139;SDS011;73027;54.208;19.128;2023-12-20T14:27:51;16.40;;;3.97;;
83139;SDS011;73027;54.208;19.128;2023-12-20T14:30:16;11.30;;;3.65;;
83139;SDS011;73027;54.208;19.128;2023-12-20T14:32:42;7.03;;;2.22;;